createdAt,value
2018-07-21T00:06:45.256Z,21.60
2018-07-21T00:11:44.440Z,21.60
2018-07-21T00:14:12.914Z,21.50
2018-07-21T00:16:41.482Z,21.50
2018-07-21T00:19:13.184Z,21.50
2018-07-21T00:21:41.644Z,21.50
2018-07-21T00:24:35.750Z,21.50
2018-07-21T00:27:07.573Z,21.40
2018-07-21T00:29:35.900Z,21.40
2018-07-21T00:34:32.445Z,21.60
2018-07-21T00:39:31.219Z,21.40
2018-07-21T00:41:57.951Z,21.30
2018-07-21T00:44:26.337Z,21.70
2018-07-21T00:46:55.664Z,21.50
2018-07-21T00:49:23.990Z,21.40
2018-07-21T00:51:52.329Z,21.30
2018-07-21T00:56:48.843Z,21.20
2018-07-21T00:59:17.467Z,21.20
2018-07-21T01:01:47.261Z,21.20
2018-07-21T01:04:16.750Z,21.20
2018-07-21T01:06:45.190Z,21.50
2018-07-21T01:09:13.560Z,21.40
2018-07-21T01:11:41.937Z,21.30
2018-07-21T01:16:39.907Z,21.20
2018-07-21T01:19:08.278Z,21.20
2018-07-21T01:21:38.607Z,21.20
2018-07-21T01:24:07.512Z,21.20
2018-07-21T01:29:06.318Z,21.20
2018-07-21T01:34:03.578Z,21.20
2018-07-21T01:36:31.909Z,21.20
2018-07-21T01:39:00.277Z,21.50
2018-07-21T01:41:28.575Z,21.70
2018-07-21T01:43:56.871Z,21.40
2018-07-21T01:46:26.519Z,21.30
2018-07-21T01:48:54.880Z,21.20
2018-07-21T01:53:51.313Z,21.60
2018-07-21T01:56:19.701Z,21.70
2018-07-21T01:58:47.997Z,21.40
2018-07-21T02:03:48.725Z,21.30
2018-07-21T02:06:17.237Z,21.20
2018-07-21T02:13:42.129Z,21.00
2018-07-21T02:16:10.480Z,21.00
2018-07-21T02:18:41.607Z,21.00
2018-07-21T02:21:09.953Z,20.90
2018-07-21T02:26:07.566Z,20.90
2018-07-21T02:28:35.888Z,20.90
2018-07-21T02:31:04.304Z,20.90
2018-07-21T02:36:00.696Z,20.80
2018-07-21T02:38:30.638Z,20.80
2018-07-21T02:40:58.941Z,20.70
2018-07-21T02:43:27.226Z,20.80
2018-07-21T02:48:23.781Z,21.00
2018-07-21T02:55:49.354Z,20.80
2018-07-21T02:58:17.664Z,20.80
2018-07-21T03:00:46.021Z,20.80
2018-07-21T03:03:14.313Z,20.80
2018-07-21T03:05:42.662Z,21.10
2018-07-21T03:08:11.021Z,21.00
2018-07-21T03:10:42.109Z,20.90
2018-07-21T03:13:10.453Z,20.90
2018-07-21T03:15:39.107Z,20.90
2018-07-21T03:20:41.229Z,21.00
2018-07-21T03:23:10.208Z,20.90
2018-07-21T03:25:38.637Z,20.80
2018-07-21T03:28:06.991Z,20.80
2018-07-21T03:30:35.720Z,21.10
2018-07-21T03:33:04.008Z,21.00
2018-07-21T03:35:32.310Z,20.90
2018-07-21T03:38:00.643Z,20.80
2018-07-21T03:40:29.031Z,20.80
2018-07-21T03:42:57.307Z,20.80
2018-07-21T03:45:25.727Z,21.00
2018-07-21T03:47:54.028Z,20.90
2018-07-21T03:50:22.407Z,20.80
2018-07-21T03:52:50.757Z,20.70
2018-07-21T03:55:19.101Z,20.60
2018-07-21T03:57:47.399Z,20.70
2018-07-21T04:10:09.426Z,20.60
2018-07-21T04:12:37.717Z,20.70
2018-07-21T04:15:06.769Z,20.70
2018-07-21T04:25:00.888Z,20.70
2018-07-21T04:27:29.223Z,20.60
2018-07-21T04:29:57.581Z,20.60
2018-07-21T04:32:25.963Z,20.60
2018-07-21T04:34:54.294Z,20.60
2018-07-21T04:37:22.616Z,20.60
2018-07-21T04:39:50.952Z,20.60
2018-07-21T04:42:19.310Z,20.60
2018-07-21T04:44:47.616Z,20.60
2018-07-21T04:49:44.070Z,20.70
2018-07-21T04:54:40.433Z,20.70
2018-07-21T05:02:04.953Z,20.70
2018-07-21T05:04:33.250Z,20.70
2018-07-21T05:09:29.646Z,21.20
2018-07-21T05:11:58.014Z,21.10
2018-07-21T05:14:26.345Z,21.00
2018-07-21T05:16:54.713Z,21.30
2018-07-21T05:21:51.453Z,21.10
2018-07-21T05:24:22.849Z,21.10
2018-07-21T05:29:24.396Z,21.10
2018-07-21T05:31:56.336Z,21.20
2018-07-21T05:34:24.805Z,21.10
2018-07-21T05:36:53.387Z,21.40
2018-07-21T05:39:21.681Z,21.60
2018-07-21T05:41:52.589Z,21.40
2018-07-21T05:44:20.960Z,21.30
2018-07-21T05:46:49.330Z,21.30
2018-07-21T05:49:20.985Z,21.30
2018-07-21T05:56:45.548Z,21.40
2018-07-21T05:59:13.987Z,21.40
2018-07-21T06:01:42.358Z,21.40
2018-07-21T06:04:10.678Z,21.80
2018-07-21T06:06:41.470Z,21.70
2018-07-21T06:09:11.169Z,21.70
2018-07-21T06:11:39.709Z,21.80
2018-07-21T06:14:08.234Z,21.70
2018-07-21T06:16:36.626Z,21.80
2018-07-21T06:19:05.137Z,22.20
2018-07-21T06:21:33.500Z,22.10
2018-07-21T06:24:01.787Z,22.00
2018-07-21T06:26:30.509Z,22.00
2018-07-21T06:29:04.509Z,22.00
2018-07-21T06:31:34.038Z,22.00
2018-07-21T06:34:01.208Z,22.10
2018-07-21T06:38:57.594Z,22.70
2018-07-21T06:41:25.990Z,22.50
2018-07-21T06:43:54.478Z,22.50
2018-07-21T06:46:22.799Z,22.50
2018-07-21T06:48:51.147Z,22.80
2018-07-21T06:51:19.495Z,22.60
2018-07-21T06:53:47.869Z,22.50
2018-07-21T06:56:16.138Z,22.50
2018-07-21T06:58:44.476Z,22.90
2018-07-21T07:06:08.961Z,22.80
2018-07-21T07:08:37.275Z,22.80
2018-07-21T07:16:01.793Z,23.00
2018-07-21T07:21:01.436Z,23.30
2018-07-21T07:23:31.423Z,23.20
2018-07-21T07:28:28.002Z,23.20
2018-07-21T07:30:56.433Z,23.20
2018-07-21T07:33:25.470Z,23.60
2018-07-21T07:35:53.872Z,23.60
2018-07-21T07:38:22.313Z,23.60
2018-07-21T07:40:50.748Z,23.60
2018-07-21T07:43:19.628Z,23.60
2018-07-21T07:45:48.001Z,23.60
2018-07-21T07:48:16.354Z,23.70
2018-07-21T07:50:44.730Z,23.60
2018-07-21T07:53:14.621Z,23.70
2018-07-21T07:55:43.000Z,24.00
2018-07-21T07:58:12.802Z,24.00
2018-07-21T08:00:41.205Z,24.00
2018-07-21T08:03:09.524Z,24.20
2018-07-21T08:05:37.955Z,24.10
2018-07-21T08:08:06.339Z,24.00
2018-07-21T08:10:37.039Z,24.00
2018-07-21T08:13:03.186Z,24.00
2018-07-21T08:15:37.121Z,24.10
2018-07-21T08:18:05.467Z,24.10
2018-07-21T08:20:33.888Z,24.20
2018-07-21T08:25:31.538Z,24.40
2018-07-21T08:27:59.976Z,24.40
2018-07-21T08:30:28.366Z,24.50
2018-07-21T08:32:56.736Z,24.80
2018-07-21T08:35:25.155Z,24.60
2018-07-21T08:37:53.504Z,24.60
2018-07-21T08:40:21.922Z,24.60
2018-07-21T08:42:50.360Z,24.70
2018-07-21T08:45:18.698Z,24.70
2018-07-21T08:47:47.133Z,24.70
2018-07-21T08:50:15.529Z,24.90
2018-07-21T08:52:43.903Z,25.00
2018-07-21T08:55:12.338Z,25.00
2018-07-21T09:00:08.817Z,25.50
2018-07-21T09:02:37.277Z,25.50
2018-07-21T09:05:08.905Z,25.50
2018-07-21T09:07:37.311Z,25.50
2018-07-21T09:12:34.680Z,25.80
2018-07-21T09:15:03.057Z,26.20
2018-07-21T09:17:31.504Z,26.40
2018-07-21T09:19:59.884Z,26.20
2018-07-21T09:22:28.269Z,26.40
2018-07-21T09:24:56.689Z,26.20
2018-07-21T09:27:25.141Z,26.20
2018-07-21T09:32:21.590Z,26.20
2018-07-21T09:37:20.958Z,26.10
2018-07-21T09:39:49.445Z,26.10
2018-07-21T09:42:17.822Z,26.10
2018-07-21T09:44:46.201Z,26.20
2018-07-21T09:47:14.601Z,26.20
2018-07-21T09:49:43.006Z,26.30
2018-07-21T09:54:39.482Z,26.70
2018-07-21T09:57:08.217Z,26.50
2018-07-21T09:59:36.594Z,26.50
2018-07-21T10:02:04.981Z,26.50
2018-07-21T10:04:33.380Z,26.40
2018-07-21T10:11:57.923Z,26.70
2018-07-21T10:16:54.331Z,27.40
2018-07-21T10:19:22.753Z,27.20
2018-07-21T10:24:36.864Z,27.30
2018-07-21T10:27:15.469Z,27.20
2018-07-21T10:29:43.856Z,27.30
2018-07-21T10:32:12.370Z,27.40
2018-07-21T10:34:40.705Z,27.60
2018-07-21T10:37:09.147Z,27.70
2018-07-21T10:42:05.683Z,27.80
2018-07-21T10:44:34.088Z,27.60
2018-07-21T10:49:30.626Z,27.50
2018-07-21T10:54:30.679Z,27.60
2018-07-21T10:56:59.066Z,27.60
2018-07-21T10:59:27.501Z,27.60
2018-07-21T11:01:56.172Z,27.70
2018-07-21T11:04:25.488Z,27.80
2018-07-21T11:06:53.911Z,27.90
2018-07-21T11:11:50.493Z,28.00
2018-07-21T11:14:20.216Z,28.10
2018-07-21T11:16:49.000Z,28.20
2018-07-21T11:19:18.408Z,28.50
2018-07-21T11:21:46.813Z,28.80
2018-07-21T11:24:18.032Z,29.00
2018-07-21T11:26:46.447Z,29.20
2018-07-21T11:29:38.092Z,29.40
2018-07-21T11:34:34.635Z,30.10
2018-07-21T11:37:03.409Z,30.40
2018-07-21T11:39:43.725Z,30.70
2018-07-21T11:42:12.185Z,30.70
2018-07-21T11:44:40.538Z,30.80
2018-07-21T11:47:08.952Z,30.80
2018-07-21T11:49:38.904Z,30.90
2018-07-21T11:52:08.513Z,30.90
2018-07-21T11:54:36.909Z,31.00
2018-07-21T11:57:05.285Z,31.10
2018-07-21T11:59:33.704Z,31.10
2018-07-21T12:02:02.257Z,31.00
2018-07-21T12:04:51.528Z,30.80
2018-07-21T12:09:48.103Z,30.60
2018-07-21T12:14:44.716Z,30.70
2018-07-21T12:17:13.112Z,31.10
2018-07-21T12:19:41.528Z,31.30
2018-07-21T12:22:09.937Z,31.50
2018-07-21T12:24:38.333Z,31.70
2018-07-21T12:27:06.749Z,31.80
2018-07-21T12:29:45.451Z,32.10
2018-07-21T12:32:13.915Z,32.30
2018-07-21T12:34:42.320Z,32.60
2018-07-21T12:37:10.733Z,32.90
2018-07-21T12:39:39.200Z,34.60
2018-07-21T12:44:35.772Z,39.80
2018-07-21T12:47:04.238Z,41.20
2018-07-21T12:52:01.932Z,42.80
2018-07-21T12:54:30.429Z,43.60
2018-07-21T12:57:00.336Z,44.00
2018-07-21T12:59:28.828Z,44.20
2018-07-21T13:01:57.269Z,44.60
2018-07-21T13:04:25.666Z,45.20
2018-07-21T13:06:54.122Z,45.60
2018-07-21T13:11:50.778Z,46.40
2018-07-21T13:16:47.310Z,48.10
2018-07-21T13:19:15.792Z,48.20
2018-07-21T13:21:44.039Z,48.00
2018-07-21T13:24:12.459Z,47.70
2018-07-21T13:26:40.825Z,47.90
2018-07-21T13:29:09.175Z,48.60
2018-07-21T13:31:38.794Z,48.60
2018-07-21T13:34:07.168Z,48.60
2018-07-21T13:36:35.555Z,46.90
2018-07-21T13:39:06.220Z,45.20
2018-07-21T13:41:35.381Z,43.70
2018-07-21T13:44:03.739Z,43.60
2018-07-21T13:46:32.208Z,43.30
2018-07-21T13:49:00.615Z,42.50
2018-07-21T13:51:31.247Z,41.80
2018-07-21T13:56:30.357Z,40.10
2018-07-21T13:58:58.836Z,39.70
2018-07-21T14:01:27.268Z,39.50
2018-07-21T14:06:25.538Z,39.30
2018-07-21T14:08:53.966Z,39.10
2018-07-21T14:11:22.388Z,39.10
2018-07-21T14:13:50.765Z,39.20
2018-07-21T14:16:20.042Z,40.40
2018-07-21T14:18:48.438Z,42.50
2018-07-21T14:21:16.850Z,44.60
2018-07-21T14:23:45.319Z,45.00
2018-07-21T14:26:13.678Z,44.60
2018-07-21T14:28:43.454Z,45.70
2018-07-21T14:31:11.875Z,47.10
2018-07-21T14:33:40.242Z,47.20
2018-07-21T14:36:10.246Z,47.60
2018-07-21T14:41:18.420Z,49.00
2018-07-21T14:43:46.804Z,49.40
2018-07-21T14:46:15.977Z,49.70
2018-07-21T14:48:44.459Z,50.00
2018-07-21T14:51:12.760Z,50.40
2018-07-21T14:53:41.302Z,50.60
2018-07-21T14:56:09.671Z,50.60
2018-07-21T14:58:38.931Z,50.30
2018-07-21T15:03:36.713Z,50.00
2018-07-21T15:06:05.615Z,50.30
2018-07-21T15:11:02.132Z,50.70
2018-07-21T15:13:30.566Z,50.70
2018-07-21T15:15:59.934Z,51.80
2018-07-21T15:18:28.356Z,51.10
2018-07-21T15:20:56.767Z,50.60
2018-07-21T15:23:25.240Z,51.30
2018-07-21T15:25:53.588Z,51.40
2018-07-21T15:28:22.083Z,50.70
2018-07-21T15:30:50.463Z,50.10
2018-07-21T15:33:18.856Z,49.90
2018-07-21T15:35:47.257Z,49.60
2018-07-21T15:38:15.714Z,49.30
2018-07-21T15:40:44.116Z,48.60
2018-07-21T15:43:12.541Z,48.60
2018-07-21T15:45:40.973Z,47.80
2018-07-21T15:48:10.998Z,47.40
2018-07-21T15:50:39.499Z,47.30
2018-07-21T15:53:08.094Z,47.30
2018-07-21T15:58:04.625Z,47.40
2018-07-21T16:00:36.085Z,47.30
2018-07-21T16:03:04.421Z,47.00
2018-07-21T16:05:32.808Z,46.40
2018-07-21T16:08:01.285Z,45.80
2018-07-21T16:10:29.661Z,45.30
2018-07-21T16:12:59.307Z,44.80
2018-07-21T16:15:27.705Z,44.40
2018-07-21T16:22:52.417Z,44.20
2018-07-21T16:27:53.254Z,44.40
2018-07-21T16:30:25.574Z,43.90
2018-07-21T16:32:53.605Z,43.40
2018-07-21T16:35:22.008Z,43.30
2018-07-21T16:37:50.506Z,42.90
2018-07-21T16:40:18.967Z,42.40
2018-07-21T16:45:15.439Z,41.40
2018-07-21T16:50:11.912Z,40.80
2018-07-21T16:52:40.348Z,40.60
2018-07-21T16:57:36.866Z,40.60
2018-07-21T17:00:05.332Z,40.80
2018-07-21T17:05:01.846Z,41.00
2018-07-21T17:07:30.532Z,41.00
2018-07-21T17:09:58.950Z,40.90
2018-07-21T17:12:27.323Z,40.60
2018-07-21T17:15:01.962Z,40.50
2018-07-21T17:17:30.305Z,40.20
2018-07-21T17:19:58.715Z,39.70
2018-07-21T17:22:27.183Z,39.30
2018-07-21T17:24:55.609Z,38.90
2018-07-21T17:27:24.056Z,38.60
2018-07-21T17:29:52.654Z,38.60
2018-07-21T17:34:49.232Z,38.60
2018-07-21T17:37:17.630Z,38.50
2018-07-21T17:42:14.126Z,38.20
2018-07-21T17:44:42.651Z,38.10
2018-07-21T17:47:11.044Z,37.80
2018-07-21T17:49:39.460Z,37.60
2018-07-21T17:52:07.936Z,37.30
2018-07-21T17:54:36.350Z,37.00
2018-07-21T17:57:04.682Z,36.70
2018-07-21T17:59:33.184Z,36.50
2018-07-21T18:02:01.687Z,36.20
2018-07-21T18:04:30.123Z,36.10
2018-07-21T18:06:58.613Z,36.00
2018-07-21T18:09:27.032Z,36.00
2018-07-21T18:11:55.431Z,36.00
2018-07-21T18:14:23.882Z,36.10
2018-07-21T18:16:52.578Z,36.00
2018-07-21T18:19:21.148Z,35.90
2018-07-21T18:21:49.541Z,36.10
2018-07-21T18:24:17.940Z,35.70
2018-07-21T18:26:46.366Z,35.50
2018-07-21T18:29:14.836Z,35.20
2018-07-21T18:31:43.296Z,34.90
2018-07-21T18:34:11.646Z,34.50
2018-07-21T18:36:40.098Z,34.40
2018-07-21T18:39:09.886Z,34.30
2018-07-21T18:41:38.368Z,34.20
2018-07-21T18:46:52.185Z,33.90
2018-07-21T18:49:22.455Z,33.70
2018-07-21T18:52:01.095Z,33.60
2018-07-21T18:54:27.705Z,33.50
2018-07-21T18:56:56.149Z,33.40
2018-07-21T18:59:25.040Z,33.30
2018-07-21T19:01:57.999Z,33.00
2018-07-21T19:04:26.620Z,32.90
2018-07-21T19:06:55.351Z,32.70
2018-07-21T19:12:11.436Z,32.40
2018-07-21T19:14:41.012Z,32.40
2018-07-21T19:19:55.200Z,32.00
2018-07-21T19:24:51.896Z,31.60
2018-07-21T19:27:33.099Z,31.50
2018-07-21T19:30:02.181Z,31.40
2018-07-21T19:32:48.676Z,31.20
2018-07-21T19:35:17.053Z,31.10
2018-07-21T19:37:49.375Z,30.90
2018-07-21T19:40:19.908Z,30.70
2018-07-21T19:45:17.102Z,30.40
2018-07-21T19:47:45.564Z,30.40
2018-07-21T19:50:16.905Z,30.30
2018-07-21T19:55:13.667Z,30.00
2018-07-21T20:00:13.685Z,30.10
2018-07-21T20:02:43.463Z,29.80
2018-07-21T20:11:12.375Z,29.50
2018-07-21T20:13:41.039Z,29.30
2018-07-21T20:16:11.962Z,29.10
2018-07-21T20:19:31.257Z,28.90
2018-07-21T20:26:21.195Z,28.60
2018-07-21T20:31:21.506Z,28.40
2018-07-21T20:33:50.553Z,28.30
2018-07-21T20:47:48.541Z,27.80
2018-07-21T20:50:26.260Z,27.70
2018-07-21T20:53:05.193Z,27.70
2018-07-21T20:58:42.204Z,27.70
2018-07-21T21:01:40.694Z,27.50
2018-07-21T21:04:12.599Z,27.30
2018-07-21T21:07:11.391Z,27.60
2018-07-21T21:09:43.603Z,27.30
2018-07-21T21:12:12.317Z,27.10
2018-07-21T21:17:08.889Z,27.20
2018-07-21T21:19:38.636Z,27.00
2018-07-21T21:22:15.710Z,26.80
2018-07-21T21:28:38.760Z,26.50
2018-07-21T21:31:10.419Z,26.40
2018-07-21T22:08:21.251Z,25.40
2018-07-21T23:20:13.126Z,23.70
2018-07-21T23:22:41.490Z,23.80
2018-07-21T23:25:09.842Z,23.80
2018-07-21T23:32:35.296Z,23.70
2018-07-21T23:35:03.766Z,23.70
2018-07-21T23:40:00.232Z,23.70
2018-07-21T23:42:28.723Z,23.60
2018-07-21T23:44:57.094Z,23.60
2018-07-21T23:47:25.451Z,23.60
2018-07-21T23:52:22.081Z,23.50
2018-07-21T23:54:50.532Z,23.50
2018-07-21T23:59:46.977Z,23.40
